Time;durP1;ratioP1;P1;durP2;ratioP2;P2;SDS_P1;SDS_P2;PMS_P1;PMS_P2;Temp;Humidity;BMP_temperature;BMP_pressure;BME280_temperature;BME280_humidity;BME280_pressure;Samples;Min_cycle;Max_cycle;Signal;HPM_P1;HPM_P2
2023/12/07 00:01:28;;;;;;;24.93;10.40;;;;;;;-145.18;100.00;46687.75;5087866;28;20449;-68
2023/12/07 00:03:53;;;;;;;19.87;11.20;;;;;;;-145.18;100.00;46691.66;5074713;28;20149;-68
2023/12/07 00:06:18;;;;;;;58.97;11.90;;;;;;;-145.18;100.00;46693.59;5075437;28;20060;-68
2023/12/07 00:08:44;;;;;;;116.13;16.23;;;;;;;-145.18;100.00;46687.75;5075492;28;20110;-68
2023/12/07 00:11:09;;;;;;;46.27;12.40;;;;;;;-145.18;100.00;46683.84;5076355;28;20084;-68
2023/12/07 00:13:35;;;;;;;54.47;12.23;;;;;;;-145.18;100.00;46689.69;5079500;28;20050;-68
2023/12/07 00:16:00;;;;;;;38.17;11.27;;;;;;;-145.18;100.00;46683.84;5076939;28;20036;-68
2023/12/07 00:18:25;;;;;;;20.57;10.17;;;;;;;-145.18;100.00;46685.78;5089695;28;20040;-68
2023/12/07 00:20:51;;;;;;;14.47;8.97;;;;;;;-145.18;100.00;46689.69;5072907;28;20104;-68
2023/12/07 00:23:16;;;;;;;14.80;8.83;;;;;;;-145.18;100.00;46689.69;5072614;28;20032;-68
2023/12/07 00:25:41;;;;;;;16.53;8.80;;;;;;;-145.18;100.00;46689.69;5096288;28;20088;-68
2023/12/07 00:28:07;;;;;;;17.97;8.93;;;;;;;-145.18;100.00;46685.78;5093817;28;20058;-68
2023/12/07 00:30:33;;;;;;;26.27;9.63;;;;;;;-145.18;100.00;46683.84;5075494;28;20050;-68
2023/12/07 00:32:59;;;;;;;18.07;8.67;;;;;;;-145.18;100.00;46695.56;5073559;28;20047;-68
2023/12/07 00:35:24;;;;;;;62.43;13.47;;;;;;;-145.18;100.00;46693.59;5074527;28;20273;-68
2023/12/07 00:37:50;;;;;;;19.10;9.23;;;;;;;-145.18;100.00;46689.69;5083678;28;20040;-68
2023/12/07 00:40:15;;;;;;;19.43;10.47;;;;;;;-145.18;100.00;46683.84;5087278;28;20451;-68
2023/12/07 00:42:41;;;;;;;17.27;9.77;;;;;;;-145.18;100.00;46683.84;5084165;28;20418;-68
2023/12/07 00:45:07;;;;;;;17.47;10.27;;;;;;;-145.18;100.00;46697.50;5076938;28;20051;-68
2023/12/07 00:47:32;;;;;;;19.60;10.47;;;;;;;-145.18;100.00;46687.75;5084382;28;20123;-68
2023/12/07 00:49:57;;;;;;;19.97;10.63;;;;;;;-145.18;100.00;46685.78;5073405;28;20434;-68
2023/12/07 00:52:23;;;;;;;20.33;10.43;;;;;;;-145.18;100.00;46687.75;5085218;28;20036;-68
2023/12/07 00:54:48;;;;;;;16.60;9.87;;;;;;;-145.18;100.00;46687.75;5078623;28;20047;-68
2023/12/07 00:57:14;;;;;;;20.23;10.83;;;;;;;-145.18;100.00;46687.75;5083358;28;20043;-68
2023/12/07 00:59:39;;;;;;;17.90;10.40;;;;;;;-145.18;100.00;46685.78;5085828;28;20039;-68
2023/12/07 01:02:06;;;;;;;18.10;10.67;;;;;;;-145.18;100.00;46693.59;5080904;28;20460;-68
2023/12/07 01:04:31;;;;;;;23.63;11.53;;;;;;;-145.18;100.00;46691.66;5080533;28;20484;-68
2023/12/07 01:06:57;;;;;;;22.03;11.80;;;;;;;-145.18;100.00;46687.75;5083650;28;20257;-68
2023/12/07 01:09:23;;;;;;;15.50;9.97;;;;;;;-145.18;100.00;46697.50;5076780;28;20028;-68
2023/12/07 01:11:49;;;;;;;20.77;10.83;;;;;;;-145.18;100.00;46677.97;5059726;28;20304;-68
2023/12/07 01:14:15;;;;;;;17.23;10.67;;;;;;;-145.18;100.00;46679.94;5076782;28;20031;-68
2023/12/07 01:16:41;;;;;;;22.10;10.13;;;;;;;-145.18;100.00;46687.75;5077828;28;20272;-68
2023/12/07 01:19:07;;;;;;;17.80;10.03;;;;;;;-145.18;100.00;46685.78;5073479;28;20051;-67
2023/12/07 01:21:33;;;;;;;21.97;10.37;;;;;;;-145.18;100.00;46697.50;5072789;28;20073;-68
2023/12/07 01:23:58;;;;;;;17.40;10.57;;;;;;;-145.18;100.00;46699.47;5084845;28;20343;-68
2023/12/07 01:26:23;;;;;;;20.37;11.77;;;;;;;-145.18;100.00;46691.66;5080386;28;20277;-67
2023/12/07 01:28:49;;;;;;;19.73;11.57;;;;;;;-145.18;100.00;46691.66;5083983;28;20400;-67
2023/12/07 01:31:14;;;;;;;20.33;11.33;;;;;;;-145.18;100.00;46685.78;5055268;28;20040;-67
2023/12/07 01:33:40;;;;;;;20.87;10.93;;;;;;;-145.18;100.00;46699.47;5072187;28;20028;-67
2023/12/07 01:36:06;;;;;;;18.83;11.33;;;;;;;-145.18;100.00;46695.56;5075844;28;20087;-67
2023/12/07 01:38:31;;;;;;;21.20;11.73;;;;;;;-145.18;100.00;46703.38;5076202;28;20501;-67
2023/12/07 01:40:56;;;;;;;21.90;11.83;;;;;;;-145.18;100.00;46689.69;5083016;28;20147;-67
2023/12/07 01:43:22;;;;;;;23.77;12.10;;;;;;;-145.18;100.00;46699.47;5077214;28;20040;-66
2023/12/07 01:45:50;;;;;;;21.30;11.57;;;;;;;-145.18;100.00;46699.47;5081098;28;20032;-66
2023/12/07 01:48:15;;;;;;;21.93;11.80;;;;;;;-145.18;100.00;46699.47;5076025;28;20457;-66
2023/12/07 01:50:41;;;;;;;29.73;11.83;;;;;;;-145.18;100.00;46693.59;5072336;28;20311;-66
2023/12/07 01:53:07;;;;;;;15.70;10.33;;;;;;;-145.18;100.00;46693.59;5077910;28;20039;-66
2023/12/07 01:55:33;;;;;;;16.80;10.53;;;;;;;-145.18;100.00;46685.78;5085131;28;20040;-70
2023/12/07 01:57:59;;;;;;;17.63;10.77;;;;;;;-145.18;100.00;46683.84;5075115;28;20052;-71
2023/12/07 02:00:26;;;;;;;18.23;10.93;;;;;;;-145.18;100.00;46683.84;5074393;28;20351;-71
2023/12/07 02:02:52;;;;;;;19.50;11.60;;;;;;;-145.18;100.00;46689.69;5085909;28;20119;-71
2023/12/07 02:05:18;;;;;;;18.80;11.80;;;;;;;-145.18;100.00;46697.50;5078398;28;20360;-71
2023/12/07 02:07:43;;;;;;;18.70;10.53;;;;;;;-145.18;100.00;46703.38;5078306;28;20040;-71
2023/12/07 02:10:11;;;;;;;18.33;11.00;;;;;;;-145.18;100.00;46691.66;5091131;28;20480;-71
2023/12/07 02:12:36;;;;;;;17.20;11.00;;;;;;;-145.18;100.00;46683.84;5078729;28;20416;-71
2023/12/07 02:15:03;;;;;;;21.03;11.77;;;;;;;-145.18;100.00;46697.50;5087582;28;20280;-71
2023/12/07 02:17:37;;;;;;;21.13;11.60;;;;;;;-145.18;100.00;46697.50;5077143;28;20404;-71
2023/12/07 02:20:21;;;;;;;22.70;11.75;;;;;;;-145.18;100.00;46685.78;5084264;28;20256;-71
2023/12/07 02:22:54;;;;;;;21.13;11.20;;;;;;;-145.18;100.00;46701.41;5072405;28;20549;-71
2023/12/07 02:25:24;;;;;;;22.07;12.00;;;;;;;-145.18;100.00;46676.03;5085045;28;20269;-70
2023/12/07 02:27:49;;;;;;;23.37;12.00;;;;;;;-145.18;100.00;46693.59;5080649;28;20257;-71
2023/12/07 02:30:15;;;;;;;29.40;13.20;;;;;;;-145.18;100.00;46677.97;5093600;28;20318;-71
2023/12/07 02:32:43;;;;;;;26.50;12.87;;;;;;;-145.18;100.00;46685.78;5076555;28;20111;-71
2023/12/07 02:35:12;;;;;;;22.70;12.50;;;;;;;-145.18;100.00;46691.66;5074489;28;20436;-71
2023/12/07 02:37:51;;;;;;;20.93;11.13;;;;;;;-145.18;100.00;46701.41;5071834;28;20254;-71
2023/12/07 02:40:26;;;;;;;21.77;13.53;;;;;;;-145.18;100.00;46699.47;5071336;28;20591;-71
2023/12/07 02:42:57;;;;;;;21.58;11.95;;;;;;;-145.18;100.00;46689.69;5071558;28;20249;-71
2023/12/07 02:45:22;;;;;;;23.90;13.40;;;;;;;-145.18;100.00;46693.59;5085483;28;20182;-71
2023/12/07 02:47:48;;;;;;;25.33;14.53;;;;;;;-145.18;100.00;46695.56;5084457;28;20348;-70
2023/12/07 02:50:14;;;;;;;26.37;14.10;;;;;;;-145.18;100.00;46699.47;5074546;28;20056;-70
2023/12/07 02:52:40;;;;;;;24.07;13.13;;;;;;;-145.18;100.00;46691.66;5077049;28;20044;-71
2023/12/07 02:55:05;;;;;;;22.53;12.47;;;;;;;-145.18;100.00;46701.41;5090060;28;20295;-70
2023/12/07 02:57:33;;;;;;;28.90;13.10;;;;;;;-145.18;100.00;46689.69;5078520;28;20465;-71
2023/12/07 02:59:59;;;;;;;21.53;13.33;;;;;;;-145.18;100.00;46685.78;5080664;28;20154;-71
2023/12/07 03:02:25;;;;;;;25.77;13.37;;;;;;;-145.18;100.00;46679.94;5074786;28;20344;-71
2023/12/07 03:04:51;;;;;;;22.00;12.07;;;;;;;-145.18;100.00;46699.47;5075543;28;20028;-71
2023/12/07 03:07:16;;;;;;;26.03;12.40;;;;;;;-145.18;100.00;46699.47;5077887;28;20031;-71
2023/12/07 03:09:42;;;;;;;22.40;12.87;;;;;;;-145.18;100.00;46683.84;5075440;28;20020;-70
2023/12/07 03:12:07;;;;;;;21.30;11.80;;;;;;;-145.18;100.00;46689.69;5088157;28;20047;-71
2023/12/07 03:14:33;;;;;;;22.73;13.20;;;;;;;-145.18;100.00;46695.56;5081635;28;20060;-71
2023/12/07 03:16:58;;;;;;;25.67;13.73;;;;;;;-145.18;100.00;46685.78;5081618;28;20499;-70
2023/12/07 03:19:24;;;;;;;24.03;13.87;;;;;;;-145.18;100.00;46687.75;5075226;28;20388;-70
2023/12/07 03:21:49;;;;;;;32.80;15.17;;;;;;;-145.18;100.00;46683.84;5074860;28;20021;-71
2023/12/07 03:24:15;;;;;;;32.00;14.60;;;;;;;-145.18;100.00;46687.75;5092733;28;20039;-71
2023/12/07 03:26:40;;;;;;;35.73;16.40;;;;;;;-145.18;100.00;46693.59;5082181;28;20024;-70
2023/12/07 03:29:06;;;;;;;40.20;16.33;;;;;;;-145.18;100.00;46681.88;5076037;28;20393;-70
2023/12/07 03:31:31;;;;;;;63.50;16.40;;;;;;;-145.18;100.00;46685.78;5080130;28;20029;-70
2023/12/07 03:33:58;;;;;;;91.37;16.47;;;;;;;-145.18;100.00;46695.56;5075554;28;20111;-70
2023/12/07 03:36:23;;;;;;;39.58;16.80;;;;;;;-145.18;100.00;46695.56;5077446;28;20028;-70
2023/12/07 03:38:49;;;;;;;64.50;17.23;;;;;;;-145.18;100.00;46699.47;5088233;28;20555;-70
2023/12/07 03:41:15;;;;;;;45.40;16.47;;;;;;;-145.18;100.00;46697.50;5092232;28;20028;-71
2023/12/07 03:43:40;;;;;;;59.20;18.20;;;;;;;-145.18;100.00;46683.84;5079943;28;20253;-70
2023/12/07 03:46:06;;;;;;;37.50;16.30;;;;;;;-145.18;100.00;46691.66;5081332;28;20032;-71
2023/12/07 03:48:32;;;;;;;51.83;16.47;;;;;;;-145.18;100.00;46691.66;5083144;28;20025;-71
2023/12/07 03:50:58;;;;;;;54.15;16.88;;;;;;;-145.18;100.00;46697.50;5078959;28;20284;-71
2023/12/07 03:53:24;;;;;;;40.67;18.07;;;;;;;-145.18;100.00;46679.94;5081772;28;20068;-71
2023/12/07 03:55:50;;;;;;;34.83;16.30;;;;;;;-145.18;100.00;46695.56;5090223;28;20032;-71
2023/12/07 03:58:15;;;;;;;77.60;18.40;;;;;;;-145.18;100.00;46691.66;5079525;28;20377;-71
2023/12/07 04:00:41;;;;;;;57.77;17.57;;;;;;;-145.18;100.00;46689.69;5075013;28;20043;-71
2023/12/07 04:03:06;;;;;;;60.30;18.50;;;;;;;-145.18;100.00;46693.59;5082430;28;20039;-71
2023/12/07 04:05:32;;;;;;;57.60;18.77;;;;;;;-145.18;100.00;46693.59;5094690;28;20031;-70
2023/12/07 04:07:57;;;;;;;67.30;17.90;;;;;;;-145.18;100.00;46681.88;5075798;28;20020;-71
2023/12/07 04:10:23;;;;;;;48.57;17.53;;;;;;;-145.18;100.00;46687.75;5072454;28;20035;-71
2023/12/07 04:12:49;;;;;;;84.60;18.73;;;;;;;-145.18;100.00;46677.97;5077641;28;20393;-70
2023/12/07 04:15:14;;;;;;;72.17;18.30;;;;;;;-145.18;100.00;46681.88;5078059;28;20060;-70
2023/12/07 04:17:40;;;;;;;46.60;16.77;;;;;;;-145.18;100.00;46691.66;5084251;28;20485;-64
2023/12/07 04:20:07;;;;;;;49.97;17.53;;;;;;;-145.18;100.00;46687.75;5073974;28;20032;-63
2023/12/07 04:22:32;;;;;;;77.32;20.63;;;;;;;-145.18;100.00;46677.97;5073817;28;20024;-64
2023/12/07 04:24:58;;;;;;;75.80;19.27;;;;;;;-145.18;100.00;46687.75;5078035;28;20082;-63
2023/12/07 04:27:23;;;;;;;101.77;20.50;;;;;;;-145.18;100.00;46683.84;5085370;28;20033;-63
2023/12/07 04:29:48;;;;;;;64.63;18.57;;;;;;;-145.18;100.00;46683.84;5076544;28;20111;-63
2023/12/07 04:32:14;;;;;;;68.57;17.77;;;;;;;-145.18;100.00;46683.84;5075705;28;20144;-63
2023/12/07 04:34:39;;;;;;;75.83;21.47;;;;;;;-145.18;100.00;46685.78;5080630;28;20391;-63
2023/12/07 04:37:04;;;;;;;71.97;20.07;;;;;;;-145.18;100.00;46681.88;5073504;28;20113;-63
2023/12/07 04:39:30;;;;;;;65.73;18.43;;;;;;;-145.18;100.00;46676.03;5073780;28;20031;-63
2023/12/07 04:41:55;;;;;;;73.10;19.93;;;;;;;-145.18;100.00;46681.88;5072349;28;20536;-63
2023/12/07 04:44:20;;;;;;;56.10;19.63;;;;;;;-145.18;100.00;46674.06;5074389;28;20110;-63
2023/12/07 04:46:46;;;;;;;79.47;19.10;;;;;;;-145.18;100.00;46670.16;5074963;28;20032;-63
2023/12/07 04:49:11;;;;;;;69.50;18.83;;;;;;;-145.18;100.00;46681.88;5081336;28;20073;-63
2023/12/07 04:51:37;;;;;;;94.90;18.00;;;;;;;-145.18;100.00;46672.13;5075270;28;20036;-62
2023/12/07 04:54:02;;;;;;;88.87;18.67;;;;;;;-145.18;100.00;46668.22;5074680;28;20438;-63
2023/12/07 04:56:27;;;;;;;121.53;17.80;;;;;;;-145.18;100.00;46672.13;5075159;28;20040;-63
2023/12/07 04:58:53;;;;;;;82.67;17.93;;;;;;;-145.18;100.00;46672.13;5085149;28;20149;-63
2023/12/07 05:01:21;;;;;;;88.87;17.77;;;;;;;-145.18;100.00;46676.03;5070073;28;20032;-63
2023/12/07 05:03:47;;;;;;;153.75;18.48;;;;;;;-145.18;100.00;46676.03;5082927;28;20039;-63
2023/12/07 05:06:12;;;;;;;70.80;16.47;;;;;;;-145.18;100.00;46670.16;5086473;28;20062;-63
2023/12/07 05:08:39;;;;;;;76.20;16.40;;;;;;;-145.18;100.00;46670.16;5072706;28;20041;-63
2023/12/07 05:11:06;;;;;;;86.15;17.67;;;;;;;-145.18;100.00;46668.22;5072444;28;20044;-63
2023/12/07 05:13:33;;;;;;;97.60;19.90;;;;;;;-145.18;100.00;46677.97;5084052;28;20032;-63
2023/12/07 05:15:59;;;;;;;84.75;15.82;;;;;;;-145.18;100.00;46677.97;5074511;28;20032;-64
2023/12/07 05:18:25;;;;;;;87.75;15.23;;;;;;;-145.18;100.00;46674.06;5089998;28;20028;-62
2023/12/07 05:20:50;;;;;;;60.60;14.60;;;;;;;-145.18;100.00;46670.16;5084563;28;20031;-63
2023/12/07 05:23:16;;;;;;;86.77;15.93;;;;;;;-145.18;100.00;46676.03;5091599;28;20118;-63
2023/12/07 05:25:41;;;;;;;50.70;14.07;;;;;;;-145.18;100.00;46672.13;5085604;28;20036;-63
2023/12/07 05:28:06;;;;;;;55.77;13.50;;;;;;;-145.18;100.00;46676.03;5087967;28;20066;-70
2023/12/07 05:30:32;;;;;;;74.80;15.00;;;;;;;-145.18;100.00;46677.97;5077784;28;20036;-71
2023/12/07 05:32:57;;;;;;;81.37;13.33;;;;;;;-145.18;100.00;46670.16;5084433;28;20444;-71
2023/12/07 05:35:23;;;;;;;66.30;13.97;;;;;;;-145.18;100.00;46664.31;5089795;28;20043;-71
2023/12/07 05:37:49;;;;;;;74.63;14.10;;;;;;;-145.18;100.00;46670.16;5088708;28;20032;-71
2023/12/07 05:40:15;;;;;;;73.85;13.60;;;;;;;-145.18;100.00;46672.13;5084938;28;20036;-72
2023/12/07 05:42:41;;;;;;;61.67;13.20;;;;;;;-145.18;100.00;46676.03;5081674;28;20032;-71
2023/12/07 05:45:07;;;;;;;75.53;15.03;;;;;;;-145.18;100.00;46668.22;5077525;28;20024;-72
2023/12/07 05:47:32;;;;;;;65.63;15.00;;;;;;;-145.18;100.00;46670.16;5084481;28;20476;-71
2023/12/07 05:49:59;;;;;;;57.87;13.73;;;;;;;-145.18;100.00;46668.22;5087144;28;20035;-71
2023/12/07 05:52:25;;;;;;;46.35;14.13;;;;;;;-145.18;100.00;46662.34;5080543;28;20028;-71
2023/12/07 05:54:50;;;;;;;77.70;17.53;;;;;;;-145.18;100.00;46668.22;5077128;28;20046;-70
2023/12/07 05:57:16;;;;;;;67.23;15.90;;;;;;;-145.18;100.00;46668.22;5090981;28;20046;-70
2023/12/07 05:59:44;;;;;;;74.97;16.23;;;;;;;-145.18;100.00;46662.34;5090922;28;20035;-71
2023/12/07 06:02:09;;;;;;;101.28;16.10;;;;;;;-145.18;100.00;46672.13;5086817;28;20032;-71
2023/12/07 06:04:35;;;;;;;69.40;15.73;;;;;;;-145.18;100.00;46668.22;5086382;28;20035;-71
2023/12/07 06:07:00;;;;;;;98.07;18.97;;;;;;;-145.18;100.00;46666.25;5086377;28;20030;-71
2023/12/07 06:09:26;;;;;;;82.40;16.30;;;;;;;-145.18;100.00;46668.22;5087663;28;20055;-71
2023/12/07 06:11:51;;;;;;;68.00;15.87;;;;;;;-145.18;100.00;46674.06;5090562;28;20439;-71
2023/12/07 06:14:17;;;;;;;78.20;16.40;;;;;;;-145.18;100.00;46662.34;5082606;28;20039;-71
2023/12/07 06:16:42;;;;;;;66.70;16.87;;;;;;;-145.18;100.00;46670.16;5075903;28;20388;-71
2023/12/07 06:19:07;;;;;;;74.93;16.80;;;;;;;-145.18;100.00;46668.22;5085813;28;20380;-71
2023/12/07 06:21:33;;;;;;;65.70;18.27;;;;;;;-145.18;100.00;46670.16;5088923;28;20024;-71
2023/12/07 06:24:01;;;;;;;76.87;17.63;;;;;;;-145.18;100.00;46670.16;5075199;28;20027;-72
2023/12/07 06:26:26;;;;;;;67.28;16.00;;;;;;;-145.18;100.00;46670.16;5081422;28;20111;-70
2023/12/07 06:28:52;;;;;;;56.93;15.47;;;;;;;-145.18;100.00;46668.22;5078733;28;20367;-71
2023/12/07 06:31:21;;;;;;;65.20;15.43;;;;;;;-145.18;100.00;46672.13;5085722;28;20027;-71
2023/12/07 06:33:47;;;;;;;48.70;13.88;;;;;;;-145.18;100.00;46666.25;5079713;28;20043;-71
2023/12/07 06:36:19;;;;;;;42.83;14.43;;;;;;;-145.18;100.00;46668.22;5082956;28;20031;-71
2023/12/07 06:38:44;;;;;;;69.00;13.98;;;;;;;-145.18;100.00;46666.25;5074423;28;20265;-64
2023/12/07 06:41:10;;;;;;;52.77;13.73;;;;;;;-145.18;100.00;46666.25;5082803;28;20040;-64
2023/12/07 06:43:35;;;;;;;50.83;12.17;;;;;;;-145.18;100.00;46672.13;5087818;28;20540;-64
2023/12/07 06:46:00;;;;;;;34.47;12.23;;;;;;;-145.18;100.00;46662.34;5081913;28;20115;-64
2023/12/07 06:48:26;;;;;;;44.13;12.97;;;;;;;-145.18;100.00;46666.25;5087461;28;20444;-64
2023/12/07 06:50:51;;;;;;;48.73;14.53;;;;;;;-145.18;100.00;46666.25;5077801;28;20035;-64
2023/12/07 06:53:18;;;;;;;31.63;11.97;;;;;;;-145.18;100.00;46674.06;5071669;28;20090;-64
2023/12/07 06:55:43;;;;;;;32.55;12.75;;;;;;;-145.18;100.00;46670.16;5074665;28;20028;-64
2023/12/07 06:58:09;;;;;;;51.37;11.70;;;;;;;-145.18;100.00;46672.13;5088564;28;20553;-64
2023/12/07 07:00:36;;;;;;;44.73;11.33;;;;;;;-145.18;100.00;46672.13;5079893;28;20233;-64
2023/12/07 07:03:01;;;;;;;32.78;10.75;;;;;;;-145.18;100.00;46670.16;5070286;28;20024;-64
2023/12/07 07:05:27;;;;;;;33.67;10.90;;;;;;;-145.18;100.00;46668.22;5071098;28;20074;-64
2023/12/07 07:07:52;;;;;;;43.90;12.07;;;;;;;-145.18;100.00;46668.22;5079384;28;20412;-64
2023/12/07 07:10:18;;;;;;;34.20;11.70;;;;;;;-145.18;100.00;46664.31;5072361;28;20020;-64
2023/12/07 07:12:43;;;;;;;26.30;10.43;;;;;;;-145.18;100.00;46670.16;5080343;28;20108;-64
2023/12/07 07:15:09;;;;;;;33.00;11.67;;;;;;;-145.18;100.00;46666.25;5080785;28;20036;-64
2023/12/07 07:17:34;;;;;;;32.33;11.23;;;;;;;-145.18;100.00;46664.31;5081320;28;20439;-64
2023/12/07 07:20:00;;;;;;;37.63;11.50;;;;;;;-145.18;100.00;46666.25;5070643;28;20060;-64
2023/12/07 07:22:25;;;;;;;36.90;12.43;;;;;;;-145.18;100.00;46664.31;5084822;28;20032;-64
2023/12/07 07:24:52;;;;;;;42.00;11.33;;;;;;;-145.18;100.00;46662.34;5077340;28;20036;-64
2023/12/07 07:27:17;;;;;;;45.03;11.63;;;;;;;-145.18;100.00;46670.16;5078946;28;20090;-64
2023/12/07 07:29:43;;;;;;;52.67;11.93;;;;;;;-145.18;100.00;46668.22;5082990;28;20396;-64
2023/12/07 07:32:08;;;;;;;40.97;13.20;;;;;;;-145.18;100.00;46658.44;5070707;28;20036;-65
2023/12/07 07:34:34;;;;;;;45.83;11.90;;;;;;;-145.18;100.00;46670.16;5081063;28;20036;-63
2023/12/07 07:36:59;;;;;;;43.93;14.07;;;;;;;-145.18;100.00;46666.25;5074266;28;20111;-64
2023/12/07 07:39:25;;;;;;;38.70;12.77;;;;;;;-145.18;100.00;46664.31;5078059;28;20024;-64
2023/12/07 07:41:50;;;;;;;52.00;12.33;;;;;;;-145.18;100.00;46672.13;5075762;28;20085;-65
2023/12/07 07:44:16;;;;;;;39.60;14.23;;;;;;;-145.18;100.00;46664.31;5081773;28;20619;-65
2023/12/07 07:46:42;;;;;;;55.47;14.93;;;;;;;-145.18;100.00;46666.25;5079727;28;20024;-71
2023/12/07 07:49:07;;;;;;;42.20;12.63;;;;;;;-145.18;100.00;46664.31;5082919;28;20025;-71
2023/12/07 07:51:32;;;;;;;52.47;12.83;;;;;;;-145.18;100.00;46672.13;5081132;28;20055;-71
2023/12/07 07:53:59;;;;;;;49.33;12.27;;;;;;;-145.18;100.00;46660.41;5082459;28;20071;-71
2023/12/07 07:56:25;;;;;;;57.08;13.27;;;;;;;-145.18;100.00;46668.22;5094042;28;20043;-70
2023/12/07 07:58:50;;;;;;;60.37;12.90;;;;;;;-145.18;100.00;46662.34;5081442;28;20029;-71
2023/12/07 08:01:16;;;;;;;45.83;13.77;;;;;;;-145.18;100.00;46664.31;5075091;28;20024;-71
2023/12/07 08:03:41;;;;;;;56.23;15.10;;;;;;;-145.18;100.00;46658.44;5079626;28;20073;-71
2023/12/07 08:06:08;;;;;;;63.17;15.13;;;;;;;-145.18;100.00;46668.22;5076069;28;20036;-71
2023/12/07 08:08:33;;;;;;;55.10;14.95;;;;;;;-145.18;100.00;46662.34;5075032;28;20025;-71
2023/12/07 08:10:59;;;;;;;62.63;15.43;;;;;;;-145.18;100.00;46666.25;5080657;28;20051;-71
2023/12/07 08:13:24;;;;;;;80.00;15.50;;;;;;;-145.18;100.00;46666.25;5092534;28;20054;-70
2023/12/07 08:15:50;;;;;;;59.47;15.53;;;;;;;-145.18;100.00;46662.34;5092452;28;20032;-70
2023/12/07 08:18:15;;;;;;;93.97;15.10;;;;;;;-145.18;100.00;46666.25;5092699;28;20487;-71
2023/12/07 08:20:40;;;;;;;50.13;13.50;;;;;;;-145.18;100.00;46662.34;5090957;28;20039;-70
2023/12/07 08:23:06;;;;;;;58.33;16.30;;;;;;;-145.18;100.00;46662.34;5091335;28;20093;-70
2023/12/07 08:25:32;;;;;;;86.20;16.67;;;;;;;-145.18;100.00;46662.34;5078006;28;20048;-71
2023/12/07 08:27:57;;;;;;;52.30;15.13;;;;;;;-145.18;100.00;46664.31;5080647;28;20081;-71
2023/12/07 08:30:23;;;;;;;66.67;16.90;;;;;;;-145.18;100.00;46664.31;5093625;28;20038;-71
2023/12/07 08:32:48;;;;;;;75.37;17.27;;;;;;;-145.18;100.00;46664.31;5086341;28;20108;-70
2023/12/07 08:35:14;;;;;;;84.07;16.73;;;;;;;-145.18;100.00;46664.31;5091655;28;20043;-71
2023/12/07 08:37:39;;;;;;;77.47;18.17;;;;;;;-145.18;100.00;46668.22;5092561;28;20032;-71
2023/12/07 08:40:05;;;;;;;91.37;16.67;;;;;;;-145.18;100.00;46660.41;5085015;28;20454;-71
2023/12/07 08:42:31;;;;;;;78.10;16.93;;;;;;;-145.18;100.00;46664.31;5084087;28;20024;-71
2023/12/07 08:44:57;;;;;;;100.87;18.30;;;;;;;-145.18;100.00;46666.25;5090032;28;20272;-71
2023/12/07 08:47:22;;;;;;;74.23;17.27;;;;;;;-145.18;100.00;46662.34;5079495;28;20298;-71
2023/12/07 08:49:48;;;;;;;61.30;17.97;;;;;;;-145.18;100.00;46658.44;5085819;28;20024;-71
2023/12/07 08:52:13;;;;;;;71.93;17.60;;;;;;;-145.18;100.00;46658.44;5090206;28;20116;-72
2023/12/07 08:54:39;;;;;;;63.03;17.00;;;;;;;-145.18;100.00;46658.44;5073938;28;20033;-72
2023/12/07 08:57:04;;;;;;;70.47;17.27;;;;;;;-145.18;100.00;46660.41;5084761;28;20036;-72
2023/12/07 08:59:32;;;;;;;81.07;17.73;;;;;;;-145.18;100.00;46662.34;5078089;28;20023;-72
2023/12/07 09:01:58;;;;;;;90.57;19.63;;;;;;;-145.18;100.00;46664.31;5077746;28;20025;-72
2023/12/07 09:04:23;;;;;;;78.13;18.13;;;;;;;-145.18;100.00;46660.41;5077123;28;20652;-72
2023/12/07 09:06:48;;;;;;;77.70;19.53;;;;;;;-145.18;100.00;46662.34;5073588;28;20074;-72
2023/12/07 09:09:14;;;;;;;76.07;19.43;;;;;;;-145.18;100.00;46656.50;5085968;28;20028;-73
2023/12/07 09:11:39;;;;;;;65.77;18.27;;;;;;;-145.18;100.00;46664.31;5082640;28;20424;-72
2023/12/07 09:14:05;;;;;;;66.07;17.20;;;;;;;-145.18;100.00;46656.50;5076979;28;20036;-72
2023/12/07 09:16:30;;;;;;;80.07;20.73;;;;;;;-145.18;100.00;46660.41;5080450;28;20504;-73
2023/12/07 09:18:56;;;;;;;60.90;18.53;;;;;;;-145.18;100.00;46660.41;5080955;28;20085;-72
2023/12/07 09:21:21;;;;;;;66.57;17.97;;;;;;;-145.18;100.00;46652.59;5091588;28;20024;-73
2023/12/07 09:23:46;;;;;;;50.37;15.10;;;;;;;-145.18;100.00;46656.50;5081865;28;21840;-73
2023/12/07 09:26:12;;;;;;;62.43;16.20;;;;;;;-145.18;100.00;46660.41;5088747;28;20040;-73
2023/12/07 09:28:39;;;;;;;52.50;15.57;;;;;;;-145.18;100.00;46654.53;5091346;28;20035;-73
2023/12/07 09:31:05;;;;;;;58.70;16.00;;;;;;;-145.18;100.00;46658.44;5087976;28;20039;-74
2023/12/07 09:33:30;;;;;;;57.93;15.13;;;;;;;-145.18;100.00;46658.44;5091568;28;20268;-73
2023/12/07 09:35:56;;;;;;;49.23;15.53;;;;;;;-145.18;100.00;46654.53;5090268;28;20047;-73
2023/12/07 09:38:21;;;;;;;64.23;16.10;;;;;;;-145.18;100.00;46660.41;5077700;28;20090;-73
2023/12/07 09:40:47;;;;;;;51.60;16.07;;;;;;;-145.18;100.00;46652.59;5089053;28;20114;-73
2023/12/07 09:43:13;;;;;;;53.83;15.30;;;;;;;-145.18;100.00;46656.50;5084703;28;20051;-73
2023/12/07 09:45:39;;;;;;;55.27;16.30;;;;;;;-145.18;100.00;46660.41;5085784;28;20276;-73
2023/12/07 09:48:04;;;;;;;55.27;15.60;;;;;;;-145.18;100.00;46654.53;5091800;28;20035;-72
2023/12/07 09:50:30;;;;;;;42.77;15.80;;;;;;;-145.18;100.00;46654.53;5088243;28;20034;-73
2023/12/07 09:52:58;;;;;;;44.20;14.73;;;;;;;-145.18;100.00;46652.59;5081409;28;20036;-73
2023/12/07 09:55:24;;;;;;;45.30;15.40;;;;;;;-145.18;100.00;46650.63;5088213;28;20040;-74
2023/12/07 09:57:51;;;;;;;52.57;15.03;;;;;;;-145.18;100.00;46652.59;5091392;28;20272;-73
2023/12/07 10:00:17;;;;;;;47.07;15.30;;;;;;;-145.18;100.00;46652.59;5084481;28;20268;-73
2023/12/07 10:02:45;;;;;;;57.17;15.43;;;;;;;-145.18;100.00;46656.50;5086088;28;20257;-73
2023/12/07 10:05:13;;;;;;;57.47;16.40;;;;;;;-145.18;100.00;46654.53;5091841;28;20272;-73
2023/12/07 10:07:44;;;;;;;57.47;17.30;;;;;;;-145.18;100.00;46650.63;5076055;28;20744;-73
2023/12/07 10:10:16;;;;;;;49.37;17.83;;;;;;;-145.18;100.00;46656.50;5088824;28;20304;-73
2023/12/07 10:12:48;;;;;;;55.13;18.33;;;;;;;-145.18;100.00;46652.59;5082809;28;20296;-73
2023/12/07 10:15:17;;;;;;;53.63;18.00;;;;;;;-145.18;100.00;46650.63;5084730;28;20748;-73
2023/12/07 10:17:47;;;;;;;52.50;17.60;;;;;;;-145.18;100.00;46652.59;5082293;28;20307;-73
2023/12/07 10:20:16;;;;;;;49.13;17.17;;;;;;;-145.18;100.00;46650.63;5080571;28;20323;-73
2023/12/07 10:22:42;;;;;;;53.37;17.70;;;;;;;-145.18;100.00;46652.59;5084560;28;20277;-73
2023/12/07 10:25:09;;;;;;;53.97;18.00;;;;;;;-145.18;100.00;46650.63;5083889;28;20288;-73
2023/12/07 10:27:35;;;;;;;63.10;19.30;;;;;;;-145.18;100.00;46648.69;5083519;28;20163;-73
2023/12/07 10:30:00;;;;;;;48.93;17.37;;;;;;;-145.18;100.00;46652.59;5084280;28;20359;-73
2023/12/07 10:32:26;;;;;;;46.03;16.77;;;;;;;-145.18;100.00;46654.53;5087901;28;20040;-73
2023/12/07 10:34:52;;;;;;;56.53;18.17;;;;;;;-145.18;100.00;46652.59;5088107;28;20036;-73
2023/12/07 10:37:18;;;;;;;52.43;17.17;;;;;;;-145.18;100.00;46654.53;5090560;28;20272;-73
2023/12/07 10:39:43;;;;;;;59.50;18.67;;;;;;;-145.18;100.00;46662.34;5087092;28;20283;-73
2023/12/07 10:42:11;;;;;;;61.33;18.63;;;;;;;-145.18;100.00;46660.41;5090789;28;20123;-73
2023/12/07 10:44:42;;;;;;;62.03;18.77;;;;;;;-145.18;100.00;46656.50;5086265;28;20044;-72
2023/12/07 10:47:10;;;;;;;58.33;19.73;;;;;;;-145.18;100.00;46656.50;5087528;28;20280;-73
2023/12/07 10:49:40;;;;;;;55.40;19.33;;;;;;;-145.18;100.00;46660.41;5086170;28;20276;-73